x

Niagara Coast Guard Station, Ny (ygnn6) Weather Station

10:00pm - Thu 29th Jan 2015 All times are CST. -6 hours from GMT.

  • Wind
    17mph, 21mph gusts
  • Air Temp 31°f
  • Sea Pressure 1010.2mb
  • Niagara Coast Guard Station, Ny
  • Niagara Coast Guard Station, Ny

More Historic Weather Station data

Upgrade to MSW Pro to gain access to the past 30 days of data for over 8000 Wavebouys and Weather Stations around the globe.

Join Pro

Comparision Forecast

View Surf forecast
   
Thu 01/29 10:00pm 17 21 mph 1010.2mb 31f
9:50pm 16 20 mph 1009.8mb 31f
9:40pm 15 20 mph 1009.8mb 31f
9:30pm 17 20 mph 1009.8mb 31f
9:20pm 15 20 mph 1009.5mb 31f
9:10pm 17 22 mph 1009.5mb 31f
9:00pm 17 22 mph 1009.5mb 31f
8:50pm 17 22 mph 1009.1mb 31f
8:40pm 21 23 mph 1009.1mb 31f
8:30pm 16 21 mph 1009.1mb 31f
8:20pm 17 21 mph 1008.8mb 31f
8:10pm 18 23 mph 1008.8mb 31f
8:00pm 21 23 mph 1008.5mb 31f
7:50pm 20 24 mph 1008.5mb 31f
7:40pm 18 23 mph 1008.1mb 31f
7:30pm 18 24 mph 1007.8mb 31f
7:20pm 17 22 mph 1007.8mb 31f
7:10pm 18 22 mph 1007.5mb 32f
7:00pm 15 18 mph 1007.5mb 32f
6:50pm 13 16 mph 1007.5mb 32f
6:40pm 13 16 mph 1007.5mb 33f
6:30pm 6 8 mph 1007.1mb 33f
6:20pm 6 9 mph 1007.1mb 33f
6:10pm 6 8 mph 1007.1mb 33f
6:00pm 3 8 mph 1006.8mb 33f
5:50pm 5 7 mph 1006.8mb 33f
5:40pm 5 9 mph 1006.8mb 33f
5:30pm 7 11 mph 1006.8mb 33f
5:20pm 8 11 mph 1006.4mb 33f
5:10pm 5 9 mph 1006.4mb 33f
5:00pm 5 8 mph 1006.4mb 33f
4:50pm 6 9 mph 1006.4mb 33f
4:40pm 8 10 mph 1006.4mb 33f
4:30pm 8 11 mph 1006.4mb 33f
4:20pm 7 10 mph 1006.4mb 33f
4:10pm 9 14 mph 1006.4mb 33f
4:00pm 8 15 mph 1006.4mb 33f
3:50pm 10 15 mph 1006.4mb 33f
3:40pm 11 17 mph 1006.4mb 34f
3:30pm 11 18 mph 1006.1mb 34f
3:20pm 10 17 mph 1006.4mb 34f
3:10pm 10 15 mph 1006.4mb 34f
3:00pm 11 18 mph 1006.4mb 34f
2:50pm 11 20 mph 1006.4mb 34f
2:40pm 11 15 mph 1006.1mb 33f
2:30pm 10 15 mph 1006.4mb 33f
2:20pm 10 13 mph 1006.4mb 32f
2:10pm 8 14 mph 1006.8mb 32f
2:00pm 10 15 mph 1006.8mb 32f
1:50pm 8 13 mph 1007.1mb 31f
1:40pm 7 10 mph 1007.1mb 31f
1:30pm 6 10 mph 1007.1mb 31f
1:20pm 6 13 mph 1007.5mb 31f
1:10pm 7 14 mph 1007.8mb 32f
1:00pm 8 17 mph 1007.8mb 32f
12:00pm 13 18 mph 1007.8mb 37f
11:50am 10 16 mph 1008.5mb 37f
11:40am 13 17 mph 1008.5mb 37f
11:30am 13 17 mph 1008.8mb 37f
11:20am 11 17 mph 1008.8mb 36f
11:10am 16 21 mph 1009.1mb 36f
11:00am 15 20 mph 1009.5mb 36f
10:50am 16 21 mph 1009.5mb 35f
10:40am 16 21 mph 1009.5mb 35f
10:30am 16 23 mph 1009.5mb 34f
10:20am 18 22 mph 1009.8mb 33f
10:10am 17 23 mph 1010.2mb 33f
10:00am 17 22 mph 1010.5mb 33f
9:50am 20 22 mph 1010.8mb 33f
9:40am 21 25 mph 1011.2mb 33f
9:30am 20 25 mph 1011.5mb 32f
9:20am 21 26 mph 1011.9mb 32f
9:10am 21 28 mph 1012.2mb 31f
9:00am 18 22 mph 1012.9mb 31f
8:50am 14 17 mph 1013.5mb 31f
8:40am 13 18 mph 1013.9mb 30f
8:30am 11 17 mph 1013.9mb 30f
8:20am 15 18 mph 1014.6mb 29f
8:10am 10 14 mph 1014.6mb 28f
8:00am 8 10 mph 1014.9mb 26f
7:50am 2 8 mph 1015.6mb 26f
7:40am 1 6 mph 1015.9mb 25f
7:30am  -  3 mph 1016.6mb 24f
7:20am  -  2 mph 1016.9mb 23f
7:10am  -  2 mph 1016.9mb 23f
7:00am  -  1 mph 1017.3mb 22f
6:50am  -  3 mph 1017.6mb 22f
6:40am  -  3 mph 1017.6mb 22f
6:30am 1 5 mph 1018.3mb 22f
6:20am  -  5 mph 1018.6mb 23f
6:10am 3 6 mph 1019mb 23f
6:00am 5 8 mph 1019mb 23f
5:50am 3 6 mph 1019mb 22f
5:40am 3 6 mph 1019.3mb 22f
5:30am 2 7 mph 1019.3mb 22f
5:20am 5 8 mph 1019.3mb 22f
5:10am 5 10 mph 1019.6mb 23f
5:00am 6 9 mph 1019.6mb 23f
4:50am 8 13 mph 1019.6mb 22f
4:40am 11 14 mph 1020mb 22f
4:30am 9 11 mph 1020.7mb 22f
4:20am 10 13 mph 1021mb 23f
4:10am 11 15 mph 1021mb 23f
4:00am 10 13 mph 1021.3mb 22f
3:50am 11 13 mph 1021.3mb 22f
3:40am 11 13 mph 1021.7mb 22f
3:30am 9 14 mph 1022mb 22f
3:20am 11 14 mph 1022mb 22f
3:10am 10 13 mph 1022.4mb 21f
3:00am 10 13 mph 1022.7mb 21f
2:50am 11 13 mph 1022.7mb 21f
2:40am 10 11 mph 1023mb 20f
2:30am 8 10 mph 1023mb 21f
2:20am 6 9 mph 1023.4mb 21f
2:10am 6 10 mph 1023.4mb 20f
2:00am 7 8 mph 1023.4mb 21f
1:50am 8 9 mph 1023.7mb 20f
1:40am 3 6 mph 1023.7mb 20f
1:30am 5 6 mph 1023.7mb 20f
1:20am 5 6 mph 1023.7mb 20f
1:10am 5 6 mph 1023.7mb 20f
1:00am 3 9 mph 1023.7mb 20f
12:50am 6 8 mph 1024mb 21f
12:40am 5 9 mph 1023.7mb 20f
12:30am 7 8 mph 1023.7mb 20f
12:20am 6 9 mph 1024mb 21f
12:10am 7 8 mph 1024mb 20f
12:00am 6 9 mph 1024mb 21f
Wed 01/28 11:50pm 6 8 mph 1024.4mb 20f
11:40pm 2 3 mph 1024.7mb 20f
11:30pm 3 5 mph 1024.7mb 20f
11:20pm 5 6 mph 1024.7mb 20f
11:10pm 2 7 mph 1024.7mb 20f
11:00pm 5 6 mph 1024.7mb 20f
10:50pm 5 10 mph 1024.7mb 20f
10:40pm 7 9 mph 1025.1mb 20f
10:30pm 7 9 mph 1025.1mb 19f
10:20pm 7 9 mph 1025.4mb 19f
10:10pm 7 10 mph 1025.4mb 20f
10:00pm 7 9 mph 1025.4mb 20f
9:50pm 6 8 mph 1025.4mb 20f
9:40pm 5 7 mph 1025.7mb 20f
9:30pm 3 6 mph 1025.4mb 20f
9:20pm 3 9 mph 1025.4mb 20f
9:10pm 6 7 mph 1025.4mb 19f
9:00pm 2 8 mph 1025.4mb 19f
8:50pm 6 9 mph 1025.4mb 19f
8:40pm 6 8 mph 1025.4mb 19f
8:30pm 6 7 mph 1025.4mb 19f
8:20pm 3 8 mph 1025.7mb 19f
8:10pm 6 8 mph 1025.7mb 19f
8:00pm 6 8 mph 1025.7mb 19f
7:50pm 6 8 mph 1026.1mb 19f
7:40pm 3 6 mph 1026.1mb 19f
7:30pm 3 6 mph 1026.1mb 19f
7:20pm 3 8 mph 1026.4mb 19f
7:10pm 6 7 mph 1026.4mb 19f
7:00pm 5 8 mph 1026.4mb 19f
6:50pm 6 9 mph 1026.4mb 20f
6:40pm 7 8 mph 1026.4mb 20f
6:30pm 6 8 mph 1026.4mb 20f
6:20pm 6 7 mph 1026.4mb 20f
6:10pm 3 6 mph 1026.4mb 20f
6:00pm 5 8 mph 1026.4mb 20f
5:50pm 6 7 mph 1026.4mb 20f
5:40pm 6 9 mph 1026.4mb 20f
5:30pm 6 8 mph 1026.4mb 21f
5:20pm 5 7 mph 1026.4mb 21f
5:10pm 5 7 mph 1026.4mb 21f
5:00pm 5 8 mph 1026.4mb 22f
4:50pm 3 7 mph 1026.4mb 22f
4:40pm 3 8 mph 1026.4mb 22f
4:30pm 5 9 mph 1026.4mb 23f
4:20pm 6 10 mph 1026.4mb 23f
4:10pm 6 9 mph 1026.8mb 24f
4:00pm 8 13 mph 1026.4mb 25f
3:50pm 8 11 mph 1026.4mb 26f
3:40pm 6 9 mph 1026.4mb 27f
3:30pm 3 7 mph 1026.1mb 27f
3:20pm 6 10 mph 1026.1mb 27f
3:10pm 7 10 mph 1025.7mb 28f
3:00pm 7 10 mph 1026.1mb 28f
2:50pm 7 11 mph 1026.1mb 27f
2:40pm 5 9 mph 1025.7mb 28f
2:30pm 6 9 mph 1025.7mb 27f
2:20pm 7 9 mph 1025.7mb 27f
2:10pm 2 8 mph 1025.7mb 27f
2:00pm 6 7 mph 1025.7mb 27f
1:50pm 5 7 mph 1025.7mb 26f
1:40pm 3 6 mph 1025.7mb 26f
1:30pm 2 6 mph 1025.7mb 26f
1:20pm  -  3 mph 1025.7mb 26f
1:10pm 2 7 mph 1025.7mb 25f
1:00pm 6 8 mph 1026.1mb 24f
12:50pm 3 7 mph 1026.1mb 24f
12:40pm 3 7 mph 1026.1mb 24f
12:30pm 5 11 mph 1026.4mb 24f
12:20pm 10 13 mph 1026.4mb 24f
12:10pm 9 14 mph 1026.4mb 24f
12:00pm 10 13 mph 1026.8mb 23f
11:50am 6 9 mph 1026.8mb 23f
11:40am 6 11 mph 1026.8mb 24f
11:30am 9 13 mph 1026.8mb 23f
11:20am 9 14 mph 1027.1mb 22f
11:10am 10 14 mph 1026.8mb 22f
11:00am 9 13 mph 1027.1mb 22f
10:50am 9 11 mph 1027.1mb 22f
10:40am 6 9 mph 1027.1mb 22f
10:30am 2 7 mph 1026.8mb 22f
10:20am 5 7 mph 1027.1mb 22f
10:10am 3 8 mph 1027.1mb 21f
10:00am 5 8 mph 1027.1mb 21f
9:50am 3 7 mph 1027.1mb 20f
9:40am 5 6 mph 1026.8mb 20f
9:30am 3 7 mph 1026.8mb 19f
9:20am 5 6 mph 1026.8mb 20f
9:10am  -  3 mph 1026.8mb 20f
9:00am 2 5 mph 1026.4mb 19f
8:50am 1 5 mph 1026.4mb 18f
8:40am 1 3 mph 1026.4mb 17f
8:30am 3 5 mph 1026.1mb 16f
8:20am 1 5 mph 1026.1mb 15f
8:10am 3 5 mph 1026.1mb 14f
8:00am 2 3 mph 1025.7mb 13f
7:50am  -  3 mph 1025.7mb 14f
7:40am  -  5 mph 1025.7mb 14f
7:30am  -  2 mph 1025.4mb 15f
7:20am  -  8 mph 1025.4mb 19f
7:10am 6 8 mph 1025.1mb 21f
7:00am 6 13 mph 1025.1mb 20f
6:50am 8 13 mph 1024.7mb 20f
6:40am 11 14 mph 1024.7mb 20f
6:30am 10 14 mph 1024.4mb 20f
6:20am 9 15 mph 1024.4mb 20f
6:10am 10 15 mph 1024.4mb 20f
6:00am 11 13 mph 1024mb 20f
5:50am 9 14 mph 1024mb 20f
5:40am 10 17 mph 1023.7mb 20f
5:30am 10 14 mph 1023.7mb 20f
5:20am 9 14 mph 1023.4mb 20f
5:10am 13 15 mph 1023.4mb 20f
5:00am 13 15 mph 1023mb 20f
4:50am 14 16 mph 1023mb 20f
4:40am 13 17 mph 1023mb 20f
4:30am 15 20 mph 1022.7mb 20f
4:20am 15 18 mph 1022.7mb 21f
4:10am 15 18 mph 1022.4mb 21f
4:00am 17 20 mph 1022.4mb 21f
3:50am 16 20 mph 1022.4mb 21f
3:40am 14 17 mph 1022mb 22f
3:30am 14 17 mph 1022mb 22f
3:20am 15 17 mph 1021.7mb 22f
3:10am 14 16 mph 1021.7mb 21f
3:00am 13 16 mph 1021.7mb 21f
2:50am 13 17 mph 1021.3mb 22f
2:40am 14 16 mph 1021.3mb 21f
2:30am 14 17 mph 1021mb 21f
2:20am 13 15 mph 1021mb 21f
2:10am 13 18 mph 1021mb 22f
2:00am 11 18 mph 1021mb 22f
1:50am 15 18 mph 1021mb 23f
1:40am 15 16 mph 1021mb 23f
1:30am 11 16 mph 1021mb 23f
1:20am 10 13 mph 1020.7mb 22f
1:10am 10 14 mph 1020.7mb 22f
1:00am 10 15 mph 1020.7mb 22f
12:50am 9 13 mph 1020.7mb 22f
12:40am 11 13 mph 1020.7mb 22f
12:30am 9 14 mph 1020.7mb 22f
12:20am 9 14 mph 1020.7mb 22f
12:10am 10 15 mph 1020.3mb 22f
12:00am 10 15 mph 1020.7mb 22f
Tue 01/27 11:50pm 9 14 mph 1020.7mb 22f
11:40pm 10 15 mph 1020.3mb 22f
11:30pm 9 14 mph 1020.3mb 22f
11:20pm 7 15 mph 1020.3mb 22f
11:10pm 9 15 mph 1020.3mb 22f
11:00pm 8 16 mph 1020.7mb 22f
10:50pm 8 16 mph 1020.3mb 23f
10:40pm 13 18 mph 1020.3mb 23f
10:30pm 11 18 mph 1020.3mb 23f
10:20pm 14 17 mph 1020.3mb 23f
10:10pm 10 20 mph 1020.3mb 23f
10:00pm 11 20 mph 1020mb 23f
9:50pm 14 20 mph 1020mb 23f
9:40pm 14 22 mph 1020mb 24f
9:30pm 13 21 mph 1019.6mb 24f
9:20pm 14 21 mph 1019.6mb 24f
9:10pm 16 23 mph 1019.6mb 24f
9:00pm 14 23 mph 1019.3mb 24f
8:50pm 20 23 mph 1019.6mb 24f
8:40pm 18 23 mph 1019.6mb 24f
8:30pm 20 24 mph 1019.6mb 24f
8:20pm 20 25 mph 1019.6mb 24f
8:10pm 18 24 mph 1019.6mb 24f
8:00pm 18 23 mph 1019.6mb 24f
7:50pm 17 22 mph 1020mb 24f
7:40pm 18 22 mph 1019.6mb 24f
7:30pm 18 23 mph 1019.6mb 24f
7:20pm 20 22 mph 1019.6mb 24f
7:10pm 17 23 mph 1019.6mb 24f
7:00pm 16 22 mph 1019.6mb 24f
6:50pm 11 18 mph 1019.6mb 24f
6:40pm 13 18 mph 1019.6mb 24f
6:30pm 11 20 mph 1020mb 24f
6:20pm 11 17 mph 1019.6mb 24f
6:10pm 10 21 mph 1019.6mb 24f
6:00pm 11 20 mph 1019.6mb 24f
5:50pm 13 18 mph 1019.6mb 24f
5:40pm 13 22 mph 1019.6mb 24f
5:30pm 9 18 mph 1019.6mb 24f
5:20pm 14 20 mph 1019.6mb 24f
5:10pm 10 16 mph 1019.6mb 24f
5:00pm 13 16 mph 1019.6mb 24f
4:50pm 9 15 mph 1019.6mb 24f
4:40pm 9 15 mph 1019.3mb 23f
4:30pm 14 16 mph 1019.3mb 24f
4:20pm 11 16 mph 1019mb 24f
4:10pm 11 16 mph 1019mb 24f
4:00pm 7 17 mph 1019mb 23f
3:50pm 10 15 mph 1019mb 24f
3:40pm 5 11 mph 1019mb 23f
3:30pm 7 13 mph 1019mb 22f
3:20pm 9 14 mph 1018.6mb 22f
3:10pm 5 13 mph 1018.6mb 22f
3:00pm 8 13 mph 1018.3mb 22f
2:50pm 8 11 mph 1018.3mb 21f
2:40pm 6 11 mph 1018.3mb 21f
2:30pm 6 10 mph 1018.3mb 21f
2:20pm 7 11 mph 1017.9mb 20f
2:10pm 8 11 mph 1017.9mb 20f
2:00pm 9 13 mph 1017.9mb 20f
1:50pm 8 11 mph 1017.9mb 20f
1:40pm 8 16 mph 1017.9mb 20f
1:30pm 5 9 mph 1017.9mb 20f
1:20pm 6 11 mph 1017.6mb 20f
1:10pm 9 14 mph 1017.6mb 20f
1:00pm 5 11 mph 1017.6mb 20f
12:50pm 8 14 mph 1017.6mb 20f
12:40pm 8 13 mph 1017.6mb 20f
12:30pm 9 13 mph 1017.6mb 20f
12:20pm 7 11 mph 1017.6mb 19f
12:10pm 3 11 mph 1017.6mb 19f
12:00pm 3 7 mph 1017.6mb 19f
11:50am 5 11 mph 1017.6mb 19f
11:40am 7 11 mph 1017.6mb 19f
11:30am 1 10 mph 1017.9mb 19f
11:20am 3 10 mph 1017.6mb 19f
11:10am 6 11 mph 1017.6mb 19f
11:00am 2 14 mph 1017.9mb 19f
10:50am 6 13 mph 1017.9mb 19f
10:40am 6 13 mph 1017.9mb 19f
10:30am 3 10 mph 1017.9mb 19f
10:20am 5 11 mph 1017.9mb 19f
10:10am 8 15 mph 1018.3mb 19f
10:00am 9 15 mph 1017.9mb 19f
9:50am 3 13 mph 1017.9mb 19f
9:40am 3 9 mph 1017.9mb 19f
9:30am 3 11 mph 1017.6mb 19f
9:20am 3 10 mph 1017.9mb 19f
9:10am 3 9 mph 1017.6mb 19f
9:00am 3 10 mph 1017.6mb 19f
8:50am 2 11 mph 1017.6mb 19f
8:40am 3 11 mph 1017.6mb 19f
8:30am 6 11 mph 1017.6mb 19f
8:20am 6 13 mph 1017.6mb 19f
8:10am 5 11 mph 1017.3mb 18f
8:00am 6 13 mph 1017.3mb 18f
7:50am 6 10 mph 1017.3mb 18f
7:40am 6 9 mph 1017.3mb 18f
7:30am 3 13 mph 1017.3mb 18f
7:20am 5 13 mph 1017.3mb 17f
7:10am 5 13 mph 1017.3mb 17f
7:00am 6 14 mph 1016.9mb 17f
6:50am 5 15 mph 1016.9mb 17f
6:40am 8 14 mph 1016.9mb 17f
6:30am 9 15 mph 1016.6mb 17f
6:20am 9 15 mph 1016.6mb 17f
6:10am 8 16 mph 1016.6mb 17f
6:00am 10 16 mph 1016.6mb 18f
5:50am 7 13 mph 1016.3mb 18f
5:40am 3 11 mph 1016.3mb 18f
5:30am 1 10 mph 1015.9mb 18f
5:20am 2 13 mph 1015.9mb 18f
5:10am 3 13 mph 1015.9mb 18f
5:00am 3 9 mph 1015.9mb 18f
4:50am 6 11 mph 1015.6mb 18f
4:40am 2 11 mph 1015.6mb 18f
4:30am 3 13 mph 1015.6mb 18f
4:20am 6 17 mph 1015.6mb 18f
4:10am 6 17 mph 1015.2mb 19f
4:00am 5 13 mph 1015.6mb 19f
3:50am 5 15 mph 1015.6mb 19f
3:40am 5 11 mph 1015.2mb 19f
3:30am 3 15 mph 1015.2mb 19f
3:20am 2 11 mph 1014.9mb 19f
3:10am 6 14 mph 1014.9mb 19f
3:00am 6 14 mph 1014.9mb 19f
2:50am 7 15 mph 1014.6mb 19f
2:40am 3 11 mph 1014.6mb 19f
2:30am 3 16 mph 1014.6mb 20f
2:20am 3 14 mph 1014.6mb 20f
2:10am 5 15 mph 1014.9mb 20f
2:00am 8 15 mph 1014.6mb 20f
1:50am 7 16 mph 1014.2mb 20f
1:40am 8 15 mph 1014.2mb 20f
1:30am 8 15 mph 1014.2mb 20f
1:20am 9 17 mph 1014.2mb 19f
1:10am 9 17 mph 1014.2mb 20f
1:00am 7 16 mph 1014.2mb 20f
12:50am 7 15 mph 1014.2mb 20f
12:40am 9 16 mph 1014.2mb 20f
12:30am 8 17 mph 1014.2mb 20f
12:20am 9 20 mph 1014.2mb 20f
12:10am 9 17 mph 1014.2mb 20f
12:00am 9 16 mph 1014.2mb 20f
Mon 01/26 11:50pm 9 20 mph 1013.9mb 20f
11:40pm 10 20 mph 1014.2mb 20f
11:30pm 9 17 mph 1014.2mb 20f
11:20pm 9 18 mph 1014.6mb 20f
11:10pm 9 17 mph 1014.6mb 20f
11:00pm 9 17 mph 1014.6mb 20f
10:50pm 10 16 mph 1014.6mb 20f
10:40pm 6 14 mph 1014.6mb 19f
10:30pm 3 17 mph 1014.6mb 20f
10:20pm 3 11 mph 1014.6mb 19f
10:10pm 7 13 mph 1014.6mb 19f
10:00pm 5 10 mph 1014.9mb 19f
9:50pm 6 14 mph 1014.9mb 19f
9:40pm 6 13 mph 1014.9mb 19f
9:30pm 3 13 mph 1014.9mb 19f
9:20pm 11 17 mph 1014.9mb 19f
9:10pm 7 17 mph 1014.9mb 19f
9:00pm 6 17 mph 1014.9mb 19f
8:50pm 3 20 mph 1014.9mb 19f
8:40pm 8 17 mph 1014.9mb 20f
8:30pm 7 18 mph 1014.9mb 20f
8:20pm 7 20 mph 1014.9mb 20f
8:10pm 10 16 mph 1015.2mb 20f
8:00pm 9 23 mph 1014.9mb 20f
7:50pm 5 15 mph 1015.2mb 19f
7:40pm 5 16 mph 1014.9mb 20f
7:30pm 10 21 mph 1014.9mb 20f
7:20pm 11 20 mph 1014.6mb 20f
7:10pm 11 21 mph 1014.9mb 20f
7:00pm 10 20 mph 1014.9mb 20f
6:50pm 14 22 mph 1014.9mb 20f
6:40pm 11 22 mph 1015.2mb 20f
6:30pm 3 18 mph 1015.2mb 20f
6:20pm 6 18 mph 1015.2mb 20f
6:10pm 7 20 mph 1015.2mb 19f
6:00pm 8 16 mph 1014.9mb 19f
5:50pm 7 14 mph 1014.9mb 19f
5:40pm 8 17 mph 1014.9mb 19f
5:30pm 7 16 mph 1014.6mb 19f
5:20pm 7 18 mph 1014.6mb 19f
5:10pm 10 18 mph 1014.2mb 19f
5:00pm 6 21 mph 1014.2mb 19f
4:50pm 6 23 mph 1014.2mb 19f
4:40pm 8 18 mph 1014.2mb 19f
4:30pm 7 20 mph 1014.2mb 19f
4:20pm 9 18 mph 1013.9mb 19f
4:10pm 8 21 mph 1013.9mb 20f
4:00pm 7 21 mph 1013.9mb 20f
3:50pm 11 25 mph 1013.5mb 20f
3:40pm 7 22 mph 1013.5mb 20f
3:30pm 7 22 mph 1013.5mb 20f
3:20pm 10 28 mph 1013.5mb 20f
3:10pm 9 22 mph 1013.5mb 20f
3:00pm 14 24 mph 1013.5mb 20f
2:50pm 16 24 mph 1013.5mb 20f
2:40pm 11 24 mph 1013.5mb 20f
2:30pm 15 24 mph 1013.5mb 20f
2:20pm 15 25 mph 1013.2mb 20f
2:10pm 14 25 mph 1013.2mb 20f
2:00pm 15 24 mph 1012.9mb 20f
1:50pm 14 24 mph 1012.9mb 20f
1:40pm 15 25 mph 1012.9mb 20f
1:30pm 13 24 mph 1012.9mb 20f
1:20pm 13 26 mph 1012.9mb 21f
1:10pm 15 26 mph 1012.9mb 21f
1:00pm 13 23 mph 1012.9mb 21f
12:50pm 13 23 mph 1012.9mb 21f
12:40pm 15 22 mph 1012.9mb 21f
12:30pm 11 22 mph 1013.2mb 21f
12:20pm 10 17 mph 1013.2mb 21f
12:10pm 13 20 mph 1013.2mb 21f
12:00pm 9 20 mph 1013.5mb 21f
11:50am 11 20 mph 1013.5mb 21f
11:40am 5 9 mph 1013.5mb 21f
11:30am 7 10 mph 1013.9mb 21f
11:20am 9 17 mph 1013.9mb 20f
11:10am 11 17 mph 1014.2mb 20f
11:00am 7 17 mph 1014.2mb 20f
10:50am 9 16 mph 1014.6mb 20f
10:40am 10 16 mph 1014.6mb 20f
10:30am 5 15 mph 1014.9mb 20f
10:20am 6 15 mph 1015.2mb 19f
10:10am 7 15 mph 1015.6mb 19f
10:00am 8 20 mph 1015.6mb 19f
9:50am 2 18 mph 1015.6mb 19f
9:40am 5 14 mph 1015.6mb 19f
9:30am 5 21 mph 1015.6mb 19f
9:20am 5 14 mph 1015.6mb 19f
9:10am 5 13 mph 1015.6mb 19f
9:00am 6 14 mph 1015.2mb 18f
8:50am 5 14 mph 1015.2mb 18f
8:40am 3 13 mph 1015.2mb 18f
8:30am 7 15 mph 1015.2mb 17f
8:20am 3 13 mph 1015.2mb 17f
8:10am 5 14 mph 1015.6mb 17f
8:00am 5 11 mph 1015.6mb 17f
7:50am 5 10 mph 1015.6mb 17f
7:40am 1 9 mph 1015.6mb 16f
7:30am 2 11 mph 1015.6mb 16f
7:20am 3 10 mph 1015.2mb 16f
7:10am 8 13 mph 1015.2mb 16f
7:00am 3 11 mph 1015.2mb 16f
6:50am 5 9 mph 1015.2mb 16f
6:40am 5 13 mph 1014.9mb 16f
6:30am 2 9 mph 1014.9mb 16f
6:20am 2 9 mph 1015.2mb 16f
6:10am 5 11 mph 1015.2mb 15f
6:00am 5 11 mph 1015.2mb 15f
5:50am 3 13 mph 1015.2mb 15f
5:40am 6 14 mph 1015.2mb 15f
5:30am 7 15 mph 1015.2mb 15f
5:20am 7 14 mph 1014.9mb 15f